Pilsen, Czech Republic
Current Conditions -  °F | °C
As of 5:00 PM on Tuesday 21 Oct 2014 (Local Time) from LKLN Reporting Station
Clear Clear  
Wind Chill: 59°   Ceiling: Unl
Heat Index: 59°   Visibility: NA
Dew Point: 48°   Wind: 3mph
Humidity: 67%   Direction: 240°WSW
Pressure: 29.71"   Gusts: NA
Location:  49.75°N, 13.4°E
Report Text: LKLN 211500Z AUTO 24003KT //// NSC 15/09 Q1006
Loading
Personal Weather Stations






























Interactive Weather Map
Tropical Storm Tracking
New forecast layout! Learn more

10-Day Weather Forecast

Advertisements
Track Severe Weather on mobile